Time;durP1;ratioP1;P1;durP2;ratioP2;P2;SDS_P1;SDS_P2;PMS_P1;PMS_P2;Temp;Humidity;BMP_temperature;BMP_pressure;BME280_temperature;BME280_humidity;BME280_pressure;Samples;Min_cycle;Max_cycle;Signal;HPM_P1;HPM_P2
2023/12/31 00:00:12;;;;;;;10.23;6.60;;;;;;;-14.92;74.71;101162.00;5065857;28;20056;-62
2023/12/31 00:02:42;;;;;;;8.70;6.07;;;;;;;-15.21;72.67;101177.56;5055739;28;20056;-62
2023/12/31 00:05:12;;;;;;;9.95;5.65;;;;;;;-15.34;72.00;101174.56;5065721;28;20054;-62
2023/12/31 00:07:44;;;;;;;10.32;5.03;;;;;;;-15.18;72.28;101169.44;5056342;28;20492;-62
2023/12/31 00:10:15;;;;;;;10.38;5.43;;;;;;;-15.22;72.13;101174.91;5065946;28;20113;-61
2023/12/31 00:12:46;;;;;;;6.90;5.25;;;;;;;-15.30;71.95;101161.63;5056015;28;20056;-61
2023/12/31 00:15:17;;;;;;;7.50;5.00;;;;;;;-15.51;70.87;101166.97;5065726;28;20117;-62
2023/12/31 00:17:47;;;;;;;7.03;5.30;;;;;;;-15.54;70.75;101164.16;5055659;28;20056;-62
2023/12/31 00:20:18;;;;;;;8.65;5.55;;;;;;;-15.50;70.33;101166.22;5065641;28;20044;-62
2023/12/31 00:22:50;;;;;;;8.68;5.35;;;;;;;-15.29;70.46;101170.00;5056240;28;20152;-62
2023/12/31 00:25:21;;;;;;;6.53;5.50;;;;;;;-15.21;70.02;101172.53;5065707;28;20150;-62
2023/12/31 00:27:51;;;;;;;8.95;5.10;;;;;;;-14.98;70.54;101170.53;5055998;28;20054;-61
2023/12/31 00:30:22;;;;;;;8.70;5.75;;;;;;;-14.57;71.60;101167.97;5059517;28;20191;-62
2023/12/31 00:32:52;;;;;;;6.93;5.13;;;;;;;-14.42;71.25;101167.66;5054774;28;20062;-62
2023/12/31 00:35:23;;;;;;;7.47;4.90;;;;;;;-14.14;71.52;101161.16;5065107;28;20670;-62
2023/12/31 00:37:55;;;;;;;8.50;5.53;;;;;;;-13.86;71.51;101158.75;5054979;28;21123;-63
2023/12/31 00:40:26;;;;;;;5.45;4.03;;;;;;;-13.72;70.83;101156.81;5065169;28;20104;-62
2023/12/31 00:42:56;;;;;;;9.07;4.88;;;;;;;-13.61;70.53;101162.81;5054604;28;20120;-62
2023/12/31 00:45:27;;;;;;;4.72;3.92;;;;;;;-13.53;69.85;101156.88;5063881;28;20052;-61
2023/12/31 00:47:57;;;;;;;8.02;4.93;;;;;;;-13.49;69.60;101151.41;5041908;28;20125;-62
2023/12/31 00:50:28;;;;;;;9.38;5.13;;;;;;;-13.41;69.45;101151.22;5044591;28;20131;-62
2023/12/31 00:53:00;;;;;;;9.00;4.72;;;;;;;-13.44;69.33;101145.94;5034664;28;20525;-61
2023/12/31 00:55:31;;;;;;;8.18;5.70;;;;;;;-13.44;69.26;101130.84;5045340;28;20538;-63
2023/12/31 00:58:02;;;;;;;6.75;4.97;;;;;;;-13.29;69.26;101157.41;5048090;28;20147;-63
2023/12/31 01:00:32;;;;;;;15.93;8.02;;;;;;;-13.22;69.10;101149.66;5061951;28;20058;-62
2023/12/31 01:03:03;;;;;;;26.88;10.50;;;;;;;-13.09;69.34;101146.63;5040197;28;20130;-61
2023/12/31 01:05:34;;;;;;;17.02;8.65;;;;;;;-12.96;69.22;101138.56;5040129;28;20584;-62
2023/12/31 01:08:15;;;;;;;20.77;10.50;;;;;;;-12.94;68.92;101129.53;5044168;28;20052;-63
2023/12/31 01:10:45;;;;;;;15.63;7.78;;;;;;;-12.98;68.57;101145.06;5041813;28;20055;-63
2023/12/31 01:13:16;;;;;;;18.30;8.52;;;;;;;-13.06;68.40;101132.69;5059771;28;20052;-64
2023/12/31 01:15:46;;;;;;;14.52;8.30;;;;;;;-12.90;68.72;101139.09;5049469;28;20052;-63
2023/12/31 01:18:17;;;;;;;11.85;6.93;;;;;;;-12.87;68.23;101130.22;5059523;28;20063;-63
2023/12/31 01:20:48;;;;;;;11.68;6.82;;;;;;;-12.87;68.14;101114.22;5036862;28;20424;-63
2023/12/31 01:23:20;;;;;;;15.18;8.18;;;;;;;-12.70;67.83;101124.19;5060154;28;20667;-63
2023/12/31 01:25:50;;;;;;;13.05;6.63;;;;;;;-12.60;67.77;101116.69;5049739;28;20067;-62
2023/12/31 01:28:21;;;;;;;10.73;5.80;;;;;;;-12.70;66.82;101111.59;5060134;28;20055;-62
2023/12/31 01:30:52;;;;;;;8.90;5.82;;;;;;;-12.84;66.75;101105.31;5046808;28;20523;-62
2023/12/31 01:33:22;;;;;;;8.40;5.53;;;;;;;-12.71;67.17;101112.31;5056485;28;20139;-63
2023/12/31 01:35:53;;;;;;;9.63;5.88;;;;;;;-12.48;67.10;101105.94;5050096;28;20372;-64
2023/12/31 01:38:25;;;;;;;7.50;5.05;;;;;;;-12.33;66.40;101107.28;5059953;28;20052;-63
2023/12/31 01:40:55;;;;;;;10.82;5.75;;;;;;;-12.25;65.98;101106.34;5049899;28;20064;-62
2023/12/31 01:43:26;;;;;;;10.70;6.20;;;;;;;-12.06;65.30;101102.88;5059723;28;20051;-62
2023/12/31 01:45:57;;;;;;;8.32;5.07;;;;;;;-11.90;65.50;101090.88;5049299;28;20052;-62
2023/12/31 01:48:28;;;;;;;9.32;5.50;;;;;;;-11.75;64.48;101092.16;5056198;28;20072;-63
2023/12/31 01:50:59;;;;;;;24.23;11.48;;;;;;;-11.68;64.48;101082.56;5048610;28;20048;-63
2023/12/31 01:53:32;;;;;;;11.30;6.13;;;;;;;-11.82;63.24;101064.66;5059264;28;20791;-63
2023/12/31 01:56:03;;;;;;;18.55;9.05;;;;;;;-11.64;63.14;101079.56;5041523;28;20101;-62
2023/12/31 01:58:34;;;;;;;13.25;6.28;;;;;;;-11.67;62.65;101086.88;5054832;28;20051;-63
2023/12/31 02:01:06;;;;;;;17.83;6.72;;;;;;;-11.68;62.52;101062.41;5055707;28;20822;-63
2023/12/31 02:03:37;;;;;;;10.98;6.18;;;;;;;-11.48;62.94;101066.59;5045605;28;20044;-63
2023/12/31 02:06:08;;;;;;;8.88;4.95;;;;;;;-11.32;62.59;101070.53;5059594;28;20080;-62
2023/12/31 02:08:40;;;;;;;10.90;6.30;;;;;;;-11.42;62.08;101078.09;5048471;28;20182;-63
2023/12/31 02:11:11;;;;;;;11.32;5.60;;;;;;;-11.41;62.30;101064.72;5058903;28;20087;-61
2023/12/31 02:13:41;;;;;;;10.90;5.55;;;;;;;-11.41;62.44;101058.81;5046538;28;20051;-61
2023/12/31 02:16:15;;;;;;;11.85;6.20;;;;;;;-11.41;62.38;101062.19;5058697;28;20510;-63
2023/12/31 02:18:46;;;;;;;12.68;6.70;;;;;;;-11.41;62.13;101053.75;5048875;28;20105;-63
2023/12/31 02:21:17;;;;;;;12.23;6.75;;;;;;;-11.40;62.53;101051.38;5055610;28;20189;-62
2023/12/31 02:23:49;;;;;;;15.60;6.43;;;;;;;-11.28;62.84;101056.56;5048693;28;20159;-63
2023/12/31 02:26:21;;;;;;;12.88;6.15;;;;;;;-11.37;62.08;101045.69;5058776;28;20141;-62
2023/12/31 02:28:51;;;;;;;12.73;6.60;;;;;;;-11.37;62.34;101036.50;5049578;28;20179;-62
2023/12/31 02:31:22;;;;;;;16.15;7.75;;;;;;;-11.36;62.65;101033.19;5055527;28;20057;-62
2023/12/31 02:33:52;;;;;;;14.27;6.28;;;;;;;-11.54;62.35;101026.63;5044517;28;20064;-62
2023/12/31 02:36:23;;;;;;;10.15;6.15;;;;;;;-11.65;62.73;101023.22;5055375;28;20083;-62
2023/12/31 02:38:53;;;;;;;10.20;6.35;;;;;;;-11.54;62.79;101024.09;5045087;28;20121;-63
2023/12/31 02:41:26;;;;;;;11.00;6.53;;;;;;;-11.48;62.79;101027.16;5058000;28;20138;-62
2023/12/31 02:43:56;;;;;;;14.88;6.03;;;;;;;-11.37;62.72;101036.50;5049437;28;20117;-63
2023/12/31 02:46:26;;;;;;;14.32;7.35;;;;;;;-11.58;62.94;101010.38;5058634;28;20059;-62
2023/12/31 02:48:56;;;;;;;8.20;6.18;;;;;;;-11.47;63.14;101023.88;5037575;28;20152;-62
2023/12/31 02:51:26;;;;;;;12.50;6.30;;;;;;;-11.43;63.17;101020.84;5058949;28;20083;-63
2023/12/31 02:53:57;;;;;;;11.82;6.03;;;;;;;-11.30;63.35;101015.19;5048283;28;20044;-62
2023/12/31 02:56:29;;;;;;;16.10;7.63;;;;;;;-11.33;62.77;101005.72;5058096;28;20040;-62
2023/12/31 02:58:59;;;;;;;14.52;7.03;;;;;;;-11.58;62.70;101009.47;5049083;28;20052;-63
2023/12/31 03:01:31;;;;;;;9.10;5.18;;;;;;;-11.87;63.23;101010.47;5058902;28;20150;-62
2023/12/31 03:04:02;;;;;;;14.43;7.18;;;;;;;-12.24;64.22;101007.34;5047814;28;20074;-63
2023/12/31 03:06:32;;;;;;;16.75;7.57;;;;;;;-12.44;64.71;101007.25;5058738;28;20135;-61
2023/12/31 03:09:02;;;;;;;16.00;8.15;;;;;;;-12.43;65.09;101004.88;5047648;28;20369;-62
2023/12/31 03:11:35;;;;;;;20.95;8.70;;;;;;;-12.35;65.55;101008.06;5059803;28;20452;-62
2023/12/31 03:14:05;;;;;;;18.52;8.25;;;;;;;-12.32;65.66;101003.28;5045788;28;20060;-62
2023/12/31 03:16:36;;;;;;;14.25;8.13;;;;;;;-12.30;65.78;101001.78;5052593;28;20052;-62
2023/12/31 03:19:07;;;;;;;14.73;6.53;;;;;;;-12.33;65.88;101001.50;5062111;28;20393;-62
2023/12/31 03:21:38;;;;;;;14.57;8.32;;;;;;;-12.36;66.16;100992.81;5048832;28;20048;-61
2023/12/31 03:24:10;;;;;;;20.58;8.40;;;;;;;-12.24;66.34;100989.72;5059169;28;20082;-61
2023/12/31 03:26:42;;;;;;;16.73;8.05;;;;;;;-12.11;66.34;100996.66;5052442;28;20105;-63
2023/12/31 03:29:12;;;;;;;16.48;8.38;;;;;;;-11.97;66.26;100993.69;5062640;28;20072;-62
2023/12/31 03:31:43;;;;;;;10.52;5.22;;;;;;;-12.01;66.02;100981.56;5052478;28;20494;-62
2023/12/31 03:34:13;;;;;;;16.63;7.78;;;;;;;-12.07;66.50;100985.22;5062474;28;20370;-62
2023/12/31 03:36:44;;;;;;;14.95;6.75;;;;;;;-12.21;67.08;100977.38;5051791;28;20044;-63
2023/12/31 03:39:15;;;;;;;8.55;4.50;;;;;;;-12.26;67.33;100973.56;5058589;28;20072;-61
2023/12/31 03:41:47;;;;;;;12.40;7.00;;;;;;;-12.29;68.20;100978.34;5048093;28;20052;-62
2023/12/31 03:44:17;;;;;;;13.57;6.90;;;;;;;-12.30;68.30;100973.19;5060721;28;21351;-63
2023/12/31 03:46:48;;;;;;;9.35;5.68;;;;;;;-12.32;68.87;100972.19;5050928;28;21582;-63
2023/12/31 03:49:19;;;;;;;12.50;5.88;;;;;;;-12.35;69.25;100972.81;5061339;28;20084;-63
2023/12/31 03:51:49;;;;;;;11.95;6.90;;;;;;;-12.46;69.27;100973.50;5051541;28;20516;-64
2023/12/31 03:54:20;;;;;;;10.75;4.97;;;;;;;-12.52;69.34;100967.97;5058125;28;20652;-63
2023/12/31 03:56:51;;;;;;;11.27;6.43;;;;;;;-12.61;69.33;100968.03;5047765;28;20102;-63
2023/12/31 03:59:21;;;;;;;17.20;6.80;;;;;;;-12.71;69.67;100966.34;5060074;28;20060;-62
2023/12/31 04:01:56;;;;;;;13.18;6.55;;;;;;;-12.77;69.91;100965.81;5051210;28;20087;-63
2023/12/31 04:04:27;;;;;;;10.70;6.03;;;;;;;-12.77;69.63;100965.81;5061675;28;20052;-63
2023/12/31 04:06:57;;;;;;;11.45;6.53;;;;;;;-12.69;69.72;100964.84;5051394;28;20346;-63
2023/12/31 04:09:27;;;;;;;16.35;7.13;;;;;;;-12.69;69.65;100969.88;5058516;28;20055;-63
2023/12/31 04:12:04;;;;;;;10.68;6.30;;;;;;;-12.57;69.70;100954.09;5051464;28;20068;-62
2023/12/31 04:14:35;;;;;;;13.38;6.25;;;;;;;-12.40;69.35;100958.94;5054020;28;20058;-63
2023/12/31 04:17:06;;;;;;;12.75;6.65;;;;;;;-12.23;69.23;100957.84;5052614;28;20147;-62
2023/12/31 04:19:36;;;;;;;9.52;5.32;;;;;;;-12.35;69.23;100912.38;5032132;28;20052;-63
2023/12/31 04:22:07;;;;;;;10.75;6.13;;;;;;;-11.93;69.31;100949.47;5037506;28;20566;-64
2023/12/31 04:24:37;;;;;;;10.85;5.53;;;;;;;-11.79;69.17;100953.13;5031212;28;20083;-62
2023/12/31 04:27:09;;;;;;;9.98;5.72;;;;;;;-11.76;69.08;100949.19;5041546;28;20044;-64
2023/12/31 04:29:39;;;;;;;12.90;6.18;;;;;;;-11.96;69.27;100899.69;5030545;28;20115;-63
2023/12/31 04:32:10;;;;;;;7.72;4.32;;;;;;;-11.58;69.16;100938.88;5041731;28;20113;-64
2023/12/31 04:34:41;;;;;;;10.55;5.82;;;;;;;-11.54;69.47;100935.84;5032215;28;20161;-63
2023/12/31 04:37:11;;;;;;;9.73;4.28;;;;;;;-11.47;69.42;100942.28;5041491;28;20183;-63
2023/12/31 04:39:42;;;;;;;8.85;5.03;;;;;;;-11.39;69.83;100937.09;5030868;28;20602;-63
2023/12/31 04:42:14;;;;;;;7.13;4.13;;;;;;;-11.34;70.13;100938.34;5041288;28;20142;-64
2023/12/31 04:44:45;;;;;;;6.45;4.47;;;;;;;-11.49;70.25;100939.63;5031698;28;20086;-63
2023/12/31 04:47:15;;;;;;;9.18;4.80;;;;;;;-11.54;70.58;100940.91;5041453;28;20079;-64
2023/12/31 04:49:46;;;;;;;5.75;4.00;;;;;;;-11.62;70.86;100931.81;5029677;28;20052;-64
2023/12/31 04:52:17;;;;;;;7.28;4.07;;;;;;;-11.57;71.29;100933.09;5039163;28;20056;-63
2023/12/31 04:54:47;;;;;;;9.35;4.82;;;;;;;-11.56;71.73;100927.28;5028910;28;20049;-64
2023/12/31 04:57:19;;;;;;;6.28;4.10;;;;;;;-11.65;71.97;100917.34;5040713;28;20063;-64
2023/12/31 04:59:50;;;;;;;8.57;4.55;;;;;;;-11.60;71.95;100930.31;5030822;28;20052;-63
2023/12/31 05:02:20;;;;;;;7.95;4.15;;;;;;;-11.64;72.64;100933.34;5041123;28;20277;-63
2023/12/31 05:04:50;;;;;;;4.10;3.22;;;;;;;-11.66;73.50;100929.81;5030975;28;20497;-63
2023/12/31 05:07:21;;;;;;;8.23;4.95;;;;;;;-11.72;73.78;100931.06;5040522;28;20056;-63
2023/12/31 05:09:52;;;;;;;9.60;4.15;;;;;;;-11.80;74.71;100932.06;5029800;28;20531;-63
2023/12/31 05:12:24;;;;;;;6.30;4.10;;;;;;;-11.89;76.07;100926.28;5039965;28;20071;-64
2023/12/31 05:14:54;;;;;;;11.88;4.90;;;;;;;-11.90;76.73;100932.09;5030641;28;20118;-64
2023/12/31 05:17:25;;;;;;;9.80;4.93;;;;;;;-11.96;77.56;100934.97;5052597;28;20048;-63
2023/12/31 05:19:55;;;;;;;11.93;5.53;;;;;;;-11.98;78.04;100928.03;5050191;28;20183;-62
2023/12/31 05:22:26;;;;;;;7.68;4.65;;;;;;;-11.92;77.89;100941.16;5060084;28;20373;-64
2023/12/31 05:24:56;;;;;;;8.40;4.85;;;;;;;-11.93;77.90;100944.41;5049510;28;20067;-63
2023/12/31 05:27:28;;;;;;;7.68;4.82;;;;;;;-11.94;77.43;100937.63;5059959;28;20083;-63
2023/12/31 05:29:59;;;;;;;7.60;4.57;;;;;;;-11.99;76.95;100946.44;5049381;28;20059;-63
2023/12/31 05:32:29;;;;;;;10.98;4.95;;;;;;;-12.05;77.24;100938.38;5057086;28;20556;-62
2023/12/31 05:34:59;;;;;;;6.72;4.95;;;;;;;-12.07;76.98;100949.97;5040999;28;20438;-64
2023/12/31 05:37:30;;;;;;;8.32;4.80;;;;;;;-12.16;77.00;100938.34;5059790;28;20052;-63
2023/12/31 05:40:01;;;;;;;8.40;5.53;;;;;;;-12.18;77.07;100947.41;5048944;28;20062;-63
2023/12/31 05:42:34;;;;;;;6.72;4.35;;;;;;;-12.20;76.57;100951.44;5056227;28;20487;-63
2023/12/31 05:45:05;;;;;;;5.00;3.80;;;;;;;-12.22;76.26;100945.38;5038259;28;20072;-63
2023/12/31 05:47:36;;;;;;;8.02;5.05;;;;;;;-12.23;75.90;100947.75;5050210;28;20063;-63
2023/12/31 05:50:15;;;;;;;7.43;4.68;;;;;;;-12.24;75.50;100956.97;5059665;28;20063;-63
2023/12/31 05:52:46;;;;;;;8.45;4.38;;;;;;;-12.25;75.19;100950.16;5049602;28;20094;-63
2023/12/31 05:55:17;;;;;;;10.93;5.22;;;;;;;-12.32;74.60;100952.91;5056369;28;20081;-63
2023/12/31 05:57:49;;;;;;;9.65;4.88;;;;;;;-12.32;74.32;100960.47;5045960;28;20063;-63
2023/12/31 06:00:19;;;;;;;8.23;4.57;;;;;;;-12.33;74.46;100961.22;5059545;28;20060;-63
2023/12/31 06:02:50;;;;;;;9.90;5.07;;;;;;;-12.32;74.10;100972.19;5048767;28;20109;-64
2023/12/31 06:05:20;;;;;;;11.82;5.40;;;;;;;-12.35;73.87;100975.31;5059003;28;20058;-63
2023/12/31 06:07:51;;;;;;;9.40;4.93;;;;;;;-12.39;73.79;100974.16;5048911;28;20048;-63
2023/12/31 06:10:21;;;;;;;7.13;4.28;;;;;;;-12.44;73.30;100972.00;5058963;28;20078;-64
2023/12/31 06:12:53;;;;;;;6.72;4.80;;;;;;;-12.46;73.28;100976.91;5045264;28;20044;-63
2023/12/31 06:15:24;;;;;;;9.90;5.03;;;;;;;-12.50;73.10;100981.53;5055194;28;20062;-63
2023/12/31 06:17:54;;;;;;;13.95;5.85;;;;;;;-12.54;72.89;100974.50;5044943;28;20119;-63
2023/12/31 06:20:25;;;;;;;11.20;6.05;;;;;;;-12.60;72.77;100974.84;5056887;28;20121;-64
2023/12/31 06:22:55;;;;;;;10.48;5.53;;;;;;;-12.63;72.46;100977.97;5048407;28;20193;-63
2023/12/31 06:25:26;;;;;;;11.32;5.85;;;;;;;-12.76;71.96;100977.66;5059266;28;20783;-62
2023/12/31 06:27:58;;;;;;;10.75;5.45;;;;;;;-12.89;71.94;100983.25;5048648;28;20146;-64
2023/12/31 06:30:28;;;;;;;7.03;4.45;;;;;;;-12.99;71.82;100973.13;5055691;28;20052;-63
2023/12/31 06:32:59;;;;;;;15.85;6.57;;;;;;;-13.10;71.71;100966.28;5048003;28;20639;-63
2023/12/31 06:35:30;;;;;;;8.68;5.85;;;;;;;-13.17;71.61;100982.44;5058744;28;20423;-62
2023/12/31 06:38:00;;;;;;;10.13;5.40;;;;;;;-13.24;71.51;100980.13;5048973;28;20463;-63
2023/12/31 06:40:30;;;;;;;8.32;5.00;;;;;;;-13.39;71.09;100983.81;5059144;28;20138;-64
2023/12/31 06:43:02;;;;;;;8.82;5.10;;;;;;;-13.50;71.32;100980.34;5047293;28;20463;-65
2023/12/31 06:45:33;;;;;;;10.23;5.30;;;;;;;-13.56;71.31;100989.84;5056809;28;20054;-63
2023/12/31 06:48:08;;;;;;;12.27;5.70;;;;;;;-13.67;71.49;100991.38;5047602;28;20059;-63
2023/12/31 06:50:38;;;;;;;7.47;4.68;;;;;;;-13.78;71.38;100982.84;5047657;28;20169;-64
2023/12/31 06:53:09;;;;;;;8.80;5.18;;;;;;;-13.93;71.63;100984.81;5058244;28;20047;-63
2023/12/31 06:55:40;;;;;;;5.28;4.05;;;;;;;-14.34;71.58;100929.19;5046818;28;20074;-64
2023/12/31 06:58:12;;;;;;;9.05;4.82;;;;;;;-14.14;71.77;100992.91;5058926;28;20044;-63
2023/12/31 07:00:42;;;;;;;9.68;4.75;;;;;;;-14.23;72.13;100987.03;5048542;28;20133;-63
2023/12/31 07:03:13;;;;;;;11.20;6.15;;;;;;;-14.29;72.33;100996.50;5058894;28;20052;-63
2023/12/31 07:05:43;;;;;;;7.50;4.65;;;;;;;-14.41;72.53;100997.13;5045420;28;20072;-63
2023/12/31 07:08:14;;;;;;;7.85;4.93;;;;;;;-14.49;72.66;100995.53;5058921;28;20044;-63
2023/12/31 07:10:44;;;;;;;11.38;5.95;;;;;;;-14.61;72.84;100999.41;5047260;28;20054;-63
2023/12/31 07:13:17;;;;;;;8.70;5.40;;;;;;;-14.66;72.61;101005.63;5057904;28;20083;-63
2023/12/31 07:15:49;;;;;;;15.02;6.32;;;;;;;-14.78;72.68;101006.19;5045016;28;20131;-64
2023/12/31 07:18:20;;;;;;;12.10;5.70;;;;;;;-14.86;73.10;101007.09;5058310;28;20051;-62
2023/12/31 07:20:51;;;;;;;13.18;6.80;;;;;;;-14.87;73.07;101014.50;5058507;28;20048;-63
2023/12/31 07:23:21;;;;;;;12.88;6.03;;;;;;;-14.99;72.83;101011.69;5048464;28;20047;-64
2023/12/31 07:25:52;;;;;;;11.35;6.32;;;;;;;-15.09;73.03;101011.53;5046625;28;20065;-63
2023/12/31 07:28:24;;;;;;;12.98;6.60;;;;;;;-15.21;73.20;101016.25;5058593;28;20113;-65
2023/12/31 07:30:55;;;;;;;14.63;7.28;;;;;;;-15.25;73.22;101015.06;5048003;28;20057;-64
2023/12/31 07:33:25;;;;;;;16.73;7.32;;;;;;;-15.32;73.17;101017.72;5055133;28;20109;-62
2023/12/31 07:35:56;;;;;;;10.55;6.13;;;;;;;-15.40;73.27;101013.53;5044776;28;20144;-64
2023/12/31 07:38:26;;;;;;;9.70;5.78;;;;;;;-15.48;73.24;101014.44;5056081;28;20169;-63
2023/12/31 07:40:56;;;;;;;8.65;5.55;;;;;;;-15.57;73.30;101023.53;5048340;28;20071;-64
2023/12/31 07:43:28;;;;;;;8.52;5.63;;;;;;;-15.58;73.55;101021.78;5057780;28;20066;-64
2023/12/31 07:45:59;;;;;;;13.90;5.47;;;;;;;-15.63;73.94;101013.78;5047386;28;20048;-64
2023/12/31 07:48:29;;;;;;;9.80;5.93;;;;;;;-15.62;74.36;101032.22;5055314;28;20135;-64
2023/12/31 07:51:03;;;;;;;17.75;6.63;;;;;;;-15.67;74.37;101027.66;5048628;28;20059;-63
2023/12/31 07:53:33;;;;;;;19.52;7.70;;;;;;;-15.75;74.26;101032.66;5058301;28;20052;-64
2023/12/31 07:56:04;;;;;;;15.63;7.50;;;;;;;-15.84;74.19;101027.63;5034073;28;20166;-64
2023/12/31 07:58:38;;;;;;;16.23;8.18;;;;;;;-15.92;74.26;101028.50;5051732;28;20565;-64
2023/12/31 08:01:09;;;;;;;14.32;7.00;;;;;;;-16.09;74.20;101025.16;5062200;28;20411;-63
2023/12/31 08:03:39;;;;;;;12.55;6.15;;;;;;;-16.26;74.30;101030.06;5049929;28;20322;-64
2023/12/31 08:06:10;;;;;;;7.90;5.20;;;;;;;-16.43;75.14;101037.47;5058390;28;20052;-64
2023/12/31 08:08:40;;;;;;;13.80;5.55;;;;;;;-16.50;75.61;101027.56;5048136;28;20044;-62
2023/12/31 08:11:12;;;;;;;7.95;5.03;;;;;;;-16.56;75.63;101043.72;5062319;28;20068;-63
2023/12/31 08:13:44;;;;;;;6.78;4.65;;;;;;;-16.64;75.94;101039.56;5051665;28;20142;-62
2023/12/31 08:16:15;;;;;;;13.27;8.40;;;;;;;-16.74;76.00;101034.34;5061676;28;20166;-62
2023/12/31 08:18:46;;;;;;;7.22;5.45;;;;;;;-16.89;76.07;101036.16;5051445;28;20063;-62
2023/12/31 08:21:16;;;;;;;9.02;6.03;;;;;;;-17.38;76.32;101010.16;5061817;28;20158;-63
2023/12/31 08:23:46;;;;;;;39.97;20.48;;;;;;;-17.19;76.79;101048.84;5051605;28;20101;-62
2023/12/31 08:26:17;;;;;;;183.95;52.08;;;;;;;-17.15;77.33;101040.94;5061435;28;20355;-62
2023/12/31 08:28:49;;;;;;;185.65;51.85;;;;;;;-17.10;77.29;101049.78;5051357;28;20064;-62
2023/12/31 08:31:19;;;;;;;274.23;68.70;;;;;;;-17.08;77.25;101058.34;5061768;28;20827;-62
2023/12/31 08:33:50;;;;;;;225.77;57.45;;;;;;;-17.38;77.11;101001.03;5050952;28;20544;-62
2023/12/31 08:36:20;;;;;;;169.93;44.00;;;;;;;-17.10;76.89;101051.41;5061622;28;20067;-62
2023/12/31 08:38:51;;;;;;;135.85;41.95;;;;;;;-17.17;76.55;101057.38;5051269;28;20159;-63
2023/12/31 08:41:22;;;;;;;101.07;36.28;;;;;;;-17.22;76.45;101068.50;5061522;28;20048;-62
2023/12/31 08:43:54;;;;;;;41.67;17.33;;;;;;;-17.23;76.40;101061.72;5051862;28;20139;-63
2023/12/31 08:46:24;;;;;;;20.38;10.18;;;;;;;-17.37;76.10;101066.88;5061708;28;20144;-63
2023/12/31 08:48:55;;;;;;;13.00;8.05;;;;;;;-17.51;76.25;101063.81;5047067;28;20110;-62
2023/12/31 08:51:26;;;;;;;14.32;8.38;;;;;;;-17.46;76.63;101072.66;5058105;28;20059;-62
2023/12/31 08:53:57;;;;;;;10.20;6.97;;;;;;;-17.55;76.41;101061.69;5047259;28;20813;-62
2023/12/31 08:56:27;;;;;;;16.95;7.40;;;;;;;-17.58;76.38;101081.34;5058357;28;20047;-62
2023/12/31 08:58:59;;;;;;;9.52;6.35;;;;;;;-17.63;76.57;101072.47;5050999;28;20052;-63
2023/12/31 09:01:30;;;;;;;10.88;6.20;;;;;;;-17.80;76.39;101072.31;5061404;28;20048;-62
2023/12/31 09:04:00;;;;;;;7.43;5.15;;;;;;;-17.86;76.49;101088.38;5050204;28;20392;-62
2023/12/31 09:06:31;;;;;;;6.20;4.90;;;;;;;-17.92;76.53;101092.72;5061017;28;20059;-62
2023/12/31 09:09:01;;;;;;;7.47;5.03;;;;;;;-17.88;76.85;101094.81;5049211;28;20928;-62
2023/12/31 09:11:32;;;;;;;6.97;4.45;;;;;;;-17.80;76.98;101092.28;5057629;28;20071;-62
2023/12/31 09:14:04;;;;;;;11.95;5.97;;;;;;;-17.79;76.75;101104.00;5051116;28;20052;-62
2023/12/31 09:16:34;;;;;;;12.02;6.22;;;;;;;-17.80;76.61;101092.28;5053934;28;20064;-62
2023/12/31 09:19:05;;;;;;;9.38;6.57;;;;;;;-17.96;75.99;101103.09;5057223;28;20083;-62
2023/12/31 09:21:35;;;;;;;15.02;8.00;;;;;;;-18.03;75.87;101107.25;5048954;28;20048;-62
2023/12/31 09:24:06;;;;;;;27.67;12.48;;;;;;;-18.16;75.45;101105.03;5060146;28;20144;-62
2023/12/31 09:26:36;;;;;;;29.75;12.80;;;;;;;-18.18;75.54;101111.44;5049718;28;20056;-62
2023/12/31 09:29:08;;;;;;;34.20;15.18;;;;;;;-18.21;75.65;101108.63;5061124;28;20048;-62
2023/12/31 09:31:39;;;;;;;17.35;8.98;;;;;;;-18.29;75.71;101113.63;5050385;28;20040;-62
2023/12/31 09:34:09;;;;;;;16.73;7.78;;;;;;;-18.35;75.60;101107.97;5044033;28;20048;-62
2023/12/31 09:36:40;;;;;;;15.77;7.25;;;;;;;-18.43;75.42;101118.69;5030676;28;20144;-62
2023/12/31 09:39:10;;;;;;;11.32;6.90;;;;;;;-18.49;75.63;101123.03;5040488;28;20510;-62
2023/12/31 09:41:43;;;;;;;6.07;5.13;;;;;;;-18.43;76.36;101128.66;5030331;28;20202;-62
2023/12/31 09:44:18;;;;;;;12.15;6.97;;;;;;;-18.32;76.58;101133.25;5040363;28;20044;-62
2023/12/31 09:47:05;;;;;;;25.33;9.82;;;;;;;-18.71;76.43;101065.78;5030798;28;20205;-62
2023/12/31 09:49:40;;;;;;;26.25;12.00;;;;;;;-18.40;76.15;101155.56;5030450;28;20107;-62
2023/12/31 09:52:11;;;;;;;20.92;11.70;;;;;;;-18.46;76.06;101143.31;5040617;28;20076;-62
2023/12/31 09:54:43;;;;;;;9.40;6.45;;;;;;;-18.56;75.93;101140.50;5030591;28;20060;-62
2023/12/31 09:57:14;;;;;;;9.82;6.07;;;;;;;-18.66;76.02;101142.69;5040438;28;20153;-62
2023/12/31 09:59:49;;;;;;;5.45;4.95;;;;;;;-18.64;75.98;101141.22;5030106;28;20062;-62
2023/12/31 10:02:22;;;;;;;9.27;5.80;;;;;;;-18.57;76.36;101146.19;5039176;28;20451;-62
2023/12/31 10:04:53;;;;;;;7.68;5.15;;;;;;;-18.45;76.27;101149.16;5030080;28;20389;-62
2023/12/31 10:07:25;;;;;;;8.45;5.80;;;;;;;-18.36;76.12;101148.59;5040224;28;20163;-62
2023/12/31 10:09:58;;;;;;;5.13;4.45;;;;;;;-18.25;75.65;101146.41;5029992;28;20122;-62
2023/12/31 10:12:31;;;;;;;6.35;4.65;;;;;;;-18.18;75.48;101136.38;5040262;28;20143;-62
2023/12/31 10:15:03;;;;;;;4.68;4.20;;;;;;;-17.89;75.24;101145.47;5029640;28;20336;-62
2023/12/31 10:17:34;;;;;;;4.55;4.15;;;;;;;-18.41;74.93;101022.50;5039550;28;20137;-62
2023/12/31 10:20:05;;;;;;;4.35;3.95;;;;;;;-17.61;74.05;101129.34;5042465;28;20075;-63
2023/12/31 10:22:37;;;;;;;5.10;4.10;;;;;;;-17.48;73.42;101146.53;5049203;28;20047;-62
2023/12/31 10:25:15;;;;;;;8.45;4.32;;;;;;;-17.41;72.70;101156.47;5059637;28;20063;-63
2023/12/31 10:27:47;;;;;;;4.57;4.20;;;;;;;-17.35;71.98;101148.75;5049038;28;20067;-63
2023/12/31 10:30:20;;;;;;;4.88;3.70;;;;;;;-17.27;70.81;101149.56;5055642;28;20796;-63
2023/12/31 10:32:51;;;;;;;4.25;3.85;;;;;;;-17.20;69.81;101152.00;5045609;28;20053;-64
2023/12/31 10:35:22;;;;;;;4.32;3.67;;;;;;;-17.23;69.39;101146.69;5058063;28;20052;-63
2023/12/31 10:38:05;;;;;;;4.18;3.80;;;;;;;-17.29;69.28;101136.03;5048283;28;20147;-62
2023/12/31 10:40:45;;;;;;;3.80;3.60;;;;;;;-17.26;68.87;101153.84;5048506;28;20052;-62
2023/12/31 10:43:20;;;;;;;5.63;4.20;;;;;;;-17.25;68.87;101158.09;5059038;28;20048;-62
2023/12/31 10:45:53;;;;;;;4.00;3.60;;;;;;;-17.27;68.68;101159.56;5045541;28;20071;-61
2023/12/31 10:48:25;;;;;;;3.83;3.63;;;;;;;-17.27;68.30;101144.56;5058375;28;20140;-62
2023/12/31 10:50:55;;;;;;;4.50;4.10;;;;;;;-17.29;68.08;101151.03;5048461;28;20083;-62
2023/12/31 10:53:27;;;;;;;4.20;3.90;;;;;;;-17.42;67.79;101149.72;5059161;28;20143;-62
2023/12/31 10:55:58;;;;;;;4.68;3.90;;;;;;;-17.47;67.97;101150.81;5048821;28;20113;-62
2023/12/31 10:58:29;;;;;;;3.95;3.65;;;;;;;-17.56;67.89;101157.31;5058835;28;20683;-63
2023/12/31 11:01:03;;;;;;;12.27;5.93;;;;;;;-17.67;68.08;101148.66;5043463;28;20090;-63
2023/12/31 11:03:36;;;;;;;35.38;12.57;;;;;;;-17.72;68.14;101151.38;5059257;28;20401;-63
2023/12/31 11:06:07;;;;;;;22.33;8.70;;;;;;;-17.83;68.43;101145.25;5039073;28;20055;-63
2023/12/31 11:08:39;;;;;;;30.70;11.68;;;;;;;-17.94;68.63;101149.06;5047020;28;20779;-63
2023/12/31 11:11:10;;;;;;;13.75;7.65;;;;;;;-18.11;68.45;101143.84;5059769;28;20051;-62
2023/12/31 11:13:46;;;;;;;11.50;7.10;;;;;;;-18.40;68.55;101148.06;5048785;28;20123;-63
2023/12/31 11:16:34;;;;;;;9.25;6.85;;;;;;;-18.41;68.53;101152.19;5058410;28;20056;-61
2023/12/31 11:19:33;;;;;;;6.65;5.60;;;;;;;-18.49;68.73;101150.44;5028689;28;20067;-62
2023/12/31 11:22:19;;;;;;;6.35;4.75;;;;;;;-18.77;68.43;101149.84;5029180;28;20515;-61
2023/12/31 11:24:53;;;;;;;8.70;4.85;;;;;;;-19.22;68.43;101150.50;5029178;28;20163;-62
2023/12/31 11:27:23;;;;;;;14.15;6.38;;;;;;;-19.64;69.03;101153.22;5039499;28;20076;-62
2023/12/31 11:29:54;;;;;;;22.48;9.18;;;;;;;-19.94;69.46;101159.59;5028698;28;20166;-63